createdAt,value
2023-04-08T14:13:26.559Z,13.19
2023-04-08T14:15:55.008Z,13.60
2023-04-08T14:18:21.468Z,13.57
2023-04-08T14:20:47.991Z,13.57
2023-04-08T14:23:14.557Z,13.74
2023-04-08T14:25:41.146Z,13.82
2023-04-08T14:28:08.119Z,13.83
2023-04-08T14:30:36.268Z,13.98
2023-04-08T14:33:02.887Z,14.04
2023-04-08T14:35:30.837Z,14.10
2023-04-08T14:37:57.519Z,14.03
2023-04-08T14:40:24.204Z,14.03
2023-04-08T14:42:50.831Z,14.07
2023-04-08T14:45:17.508Z,14.06
2023-04-08T14:47:44.048Z,14.08
2023-04-08T14:50:10.854Z,14.10
2023-04-08T14:52:37.338Z,13.97
2023-04-08T14:55:04.546Z,13.79
2023-04-08T14:57:31.962Z,13.81
2023-04-08T14:59:59.485Z,13.80
2023-04-08T15:02:26.344Z,13.75
2023-04-08T15:04:52.945Z,13.82
2023-04-08T15:07:19.549Z,13.75
2023-04-08T15:09:46.255Z,13.64
2023-04-08T15:12:13.655Z,13.72
2023-04-08T15:14:40.484Z,13.74
2023-04-08T15:17:07.066Z,13.70
2023-04-08T15:19:33.662Z,13.65
2023-04-08T15:22:00.395Z,13.64
2023-04-08T15:24:27.006Z,13.44
2023-04-08T15:26:53.515Z,13.50
2023-04-08T15:29:23.214Z,13.50
2023-04-08T15:31:49.787Z,13.55
2023-04-08T15:34:16.775Z,13.50
2023-04-08T15:36:43.415Z,13.54
2023-04-08T15:39:10.006Z,13.58
2023-04-08T15:41:36.977Z,13.56
2023-04-08T15:44:05.828Z,13.61
2023-04-08T15:46:33.277Z,13.63
2023-04-08T15:49:01.358Z,13.62
2023-04-08T15:51:28.722Z,13.69
2023-04-08T15:53:55.401Z,13.62
2023-04-08T15:56:22.169Z,13.56
2023-04-08T15:58:49.048Z,13.49
2023-04-08T16:01:16.883Z,13.55
2023-04-08T16:03:43.681Z,13.54
2023-04-08T16:06:10.434Z,13.38
2023-04-08T16:08:37.114Z,13.33
2023-04-08T16:11:06.233Z,13.35
2023-04-08T16:13:34.149Z,13.27
2023-04-08T16:16:04.152Z,13.19
2023-04-08T16:18:30.861Z,13.12
2023-04-08T16:20:57.850Z,13.13
2023-04-08T16:23:24.589Z,13.09
2023-04-08T16:25:52.029Z,13.07
2023-04-08T16:28:18.825Z,13.09
2023-04-08T16:30:47.625Z,13.14
2023-04-08T16:33:14.311Z,13.09
2023-04-08T16:35:40.827Z,13.16
2023-04-08T16:38:07.374Z,13.17
2023-04-08T16:40:34.889Z,13.11
2023-04-08T16:43:02.266Z,13.16
2023-04-08T16:45:30.045Z,13.28
2023-04-08T16:47:57.192Z,13.24
2023-04-08T16:50:24.151Z,13.19
2023-04-08T16:52:50.856Z,13.17
2023-04-08T16:55:17.816Z,13.12
2023-04-08T16:57:44.712Z,13.16
2023-04-08T17:00:11.774Z,13.14
2023-04-08T17:02:38.428Z,13.16
2023-04-08T17:05:05.518Z,13.21
2023-04-08T17:07:32.826Z,13.15
2023-04-08T17:09:59.708Z,13.07
2023-04-08T17:12:26.699Z,13.05
2023-04-08T17:14:53.299Z,13.03
2023-04-08T17:17:19.968Z,13.02
2023-04-08T17:19:47.209Z,13.03
2023-04-08T17:22:13.730Z,13.01
2023-04-08T17:24:40.550Z,13.00
2023-04-08T17:27:07.096Z,13.10
2023-04-08T17:29:33.665Z,13.06
2023-04-08T17:32:00.169Z,13.04
2023-04-08T17:34:26.816Z,13.01
2023-04-08T17:36:53.341Z,12.93
2023-04-08T17:39:19.888Z,12.88
2023-04-08T17:41:46.491Z,12.76
2023-04-08T17:44:13.032Z,12.61
2023-04-08T17:46:39.553Z,12.56
2023-04-08T17:49:06.010Z,12.57
2023-04-08T17:51:33.067Z,12.50
2023-04-08T17:53:59.746Z,12.50
2023-04-08T17:56:27.880Z,12.45
2023-04-08T17:58:54.625Z,12.33
2023-04-08T18:01:22.407Z,12.32
2023-04-08T18:03:51.320Z,12.27
2023-04-08T18:06:18.114Z,12.21
2023-04-08T18:08:45.461Z,12.16
2023-04-08T18:11:12.246Z,12.06
2023-04-08T18:13:38.808Z,12.14
2023-04-08T18:16:05.699Z,12.08
2023-04-08T18:18:32.291Z,12.15
2023-04-08T18:20:58.744Z,12.12
2023-04-08T18:23:25.227Z,12.07
2023-04-08T18:25:51.712Z,12.00
2023-04-08T18:28:18.266Z,12.02
2023-04-08T18:30:44.869Z,12.05
2023-04-08T18:33:11.437Z,11.92
2023-04-08T18:35:38.033Z,12.02
2023-04-08T18:38:04.765Z,11.95
2023-04-08T18:40:31.631Z,11.95
2023-04-08T18:43:02.129Z,12.02
2023-04-08T18:45:29.491Z,12.03
2023-04-08T18:47:56.373Z,12.00
2023-04-08T18:50:23.532Z,11.89
2023-04-08T18:52:50.413Z,11.90
2023-04-08T18:55:17.191Z,11.88
2023-04-08T18:57:46.449Z,11.88
2023-04-08T19:00:13.225Z,11.93
2023-04-08T19:02:39.805Z,11.80
2023-04-08T19:05:07.314Z,11.91
2023-04-08T19:07:34.350Z,11.88
2023-04-08T19:10:00.966Z,11.99
2023-04-08T19:12:27.508Z,11.98
2023-04-08T19:14:54.720Z,11.95
2023-04-08T19:17:21.275Z,11.96
2023-04-08T19:19:47.801Z,12.08
2023-04-08T19:22:14.389Z,12.05
2023-04-08T19:24:41.112Z,12.07
2023-04-08T19:27:07.583Z,12.09
2023-04-08T19:29:34.682Z,12.10
2023-04-08T19:32:01.673Z,12.04
2023-04-08T19:34:28.498Z,11.92
2023-04-08T19:36:55.083Z,11.93
2023-04-08T19:39:21.837Z,11.77
2023-04-08T19:41:48.998Z,11.75
2023-04-08T19:44:15.771Z,11.68
2023-04-08T19:46:42.463Z,11.69
2023-04-08T19:49:08.980Z,11.58
2023-04-08T19:51:35.544Z,11.52
2023-04-08T19:54:02.065Z,11.43
2023-04-08T19:56:32.567Z,11.36
2023-04-08T19:58:59.338Z,11.27
2023-04-08T20:01:26.089Z,11.19
2023-04-08T20:03:52.875Z,11.16
2023-04-08T20:06:20.523Z,11.21
2023-04-08T20:08:47.267Z,11.11
2023-04-08T20:11:14.159Z,11.06
2023-04-08T20:13:41.108Z,10.99
2023-04-08T20:16:07.883Z,11.03
2023-04-08T20:18:34.728Z,11.03
2023-04-08T20:21:01.343Z,10.88
2023-04-08T20:23:28.641Z,10.87
2023-04-08T20:25:56.852Z,10.61
2023-04-08T20:28:23.738Z,10.61
2023-04-08T20:30:50.235Z,10.62
2023-04-08T20:33:16.796Z,10.55
2023-04-08T20:35:44.166Z,10.60
2023-04-08T20:38:10.741Z,10.49
2023-04-08T20:40:43.902Z,10.50
2023-04-08T20:43:10.701Z,10.52
2023-04-08T20:45:37.994Z,10.43
2023-04-08T20:48:05.559Z,10.35
2023-04-08T20:50:32.924Z,10.35
2023-04-08T20:52:59.598Z,10.37
2023-04-08T20:55:29.334Z,10.24
2023-04-08T20:57:55.793Z,10.13
2023-04-08T21:00:22.467Z,10.05
2023-04-08T21:02:50.414Z,10.00
2023-04-08T21:05:20.141Z,10.00
2023-04-08T21:07:47.106Z,10.09
2023-04-08T21:10:14.364Z,10.11
2023-04-08T21:12:43.369Z,10.11
2023-04-08T21:15:10.677Z,10.09
2023-04-08T21:17:37.281Z,9.98
2023-04-08T21:20:04.625Z,10.00
2023-04-08T21:22:32.442Z,10.10
2023-04-08T21:24:59.359Z,10.13
2023-04-08T21:27:26.288Z,10.07
2023-04-08T21:29:53.003Z,9.95
2023-04-08T21:32:19.962Z,9.97
2023-04-08T21:34:46.666Z,10.01
2023-04-08T21:37:13.457Z,9.97
2023-04-08T21:39:40.066Z,9.85
2023-04-08T21:42:06.887Z,9.70
2023-04-08T21:44:33.537Z,9.59
2023-04-08T21:47:01.954Z,9.59
2023-04-08T21:49:31.623Z,9.60
2023-04-08T21:51:58.497Z,9.62
2023-04-08T21:54:24.970Z,9.64
2023-04-08T21:56:51.428Z,9.58
2023-04-08T21:59:19.372Z,9.56
2023-04-08T22:01:46.053Z,9.42
2023-04-08T22:04:12.936Z,9.44
2023-04-08T22:06:41.260Z,9.48
2023-04-08T22:09:08.057Z,9.43
2023-04-08T22:11:34.653Z,9.43
2023-04-08T22:14:01.225Z,9.49
2023-04-08T22:16:27.729Z,9.51
2023-04-08T22:18:54.563Z,9.53
2023-04-08T22:21:21.720Z,9.59
2023-04-08T22:23:48.164Z,9.63
2023-04-08T22:26:15.996Z,9.63
2023-04-08T22:28:42.701Z,9.49
2023-04-08T22:31:11.680Z,9.49
2023-04-08T22:33:39.093Z,9.49
2023-04-08T22:36:06.129Z,9.46
2023-04-08T22:38:32.856Z,9.44
2023-04-08T22:40:59.368Z,9.36
2023-04-08T22:43:26.284Z,9.38
2023-04-08T22:45:52.950Z,9.30
2023-04-08T22:48:19.630Z,9.38
2023-04-08T22:50:46.172Z,9.28
2023-04-08T22:53:13.137Z,9.42
2023-04-08T22:55:39.653Z,9.41
2023-04-08T22:58:06.304Z,9.45
2023-04-08T23:00:32.832Z,9.42
2023-04-08T23:03:02.717Z,9.44
2023-04-08T23:05:29.388Z,9.44
2023-04-08T23:07:55.914Z,9.42
2023-04-08T23:10:22.419Z,9.45
2023-04-08T23:12:49.096Z,9.53
2023-04-08T23:15:15.589Z,9.60
2023-04-08T23:17:42.102Z,9.65
2023-04-08T23:20:09.114Z,9.71
2023-04-08T23:22:35.755Z,9.70
2023-04-08T23:25:02.762Z,9.67
2023-04-08T23:27:29.310Z,9.69
2023-04-08T23:29:56.010Z,9.65
2023-04-08T23:32:22.584Z,9.70
2023-04-08T23:34:49.146Z,9.64
2023-04-08T23:37:15.730Z,9.58
2023-04-08T23:39:42.201Z,9.61
2023-04-08T23:42:08.649Z,9.67
2023-04-08T23:44:35.273Z,9.72
2023-04-08T23:47:01.754Z,9.72
2023-04-08T23:49:28.437Z,9.70
2023-04-08T23:51:55.026Z,9.74
2023-04-08T23:54:22.910Z,9.69
2023-04-08T23:56:49.619Z,9.56
2023-04-08T23:59:16.233Z,9.62
